M I D A S
Marine Information and Data Acquisition System
Tripno 1864 of the Zeeleeuw from 2010-04-23 06:30:26 to 2010-04-23 15:38:00
Back to CruiseResearch ActivitiesStationsMapUnderway DataData graphs

EquipmentUnitsComments
TimeDGPSUTC
LatitudeDGPSDM.mWGS84
LongitudeDGPSDM.mWGS84
SpeedMeteo Stationm/sRelative wind speed
DirectionMeteo StationdegRelative wind direction
TemperatureMeteo Stationdeg CelciusAir temperature
PressureMeteo StationPaAtmospheric pressure
HumidityMeteo Station%Relative humidity
Missing or incorrect values are displayed as -999
Metereological data collected by the RV Zeeleeuw from 2010-04-23 06:21:22 to 2010-04-23 16:16:10
Time Latitude Longitude Speed Direction Temperature Pressure Humidity
2010-04-23 06:22 51°13.677 2°55.9 1.6 32 5.9 101650 32
2010-04-23 06:23 51°13.689 2°55.814 1.1 256 5.9 101650 34
2010-04-23 06:24 51°13.692 2°55.776 1.4 325 5.9 101650 31
2010-04-23 06:25 51°13.689 2°55.763 0.7 344 5.9 101650 31
2010-04-23 06:26 51°13.729 2°55.735 2.1 353 5.9 101650 35
2010-04-23 06:27 51°13.81 2°55.657 2.4 341 5.8 101650 31
2010-04-23 06:28 51°13.911 2°55.594 3.2 339 5.8 101650 31
2010-04-23 06:29 51°14.018 2°55.532 3.6 341 5.8 101650 34
2010-04-23 06:30 51°14.154 2°55.415 5 344 5.8 101650 31
2010-04-23 06:31 51°14.312 2°55.257 5.7 347 5.9 101640 34
2010-04-23 06:32 51°14.486 2°55.061 6.2 347 6 101640 32
2010-04-23 06:33 51°14.668 2°54.838 5.9 353 6.2 101640 35
2010-04-23 06:34 51°14.842 2°54.6 5.7 353 6.3 101640 35
2010-04-23 06:35 51°15.029 2°54.385 7.1 352 6.5 101630 32
2010-04-23 06:36 51°15.245 2°54.227 7.3 351 6.6 101640 32
2010-04-23 06:37 51°15.455 2°54.056 7.3 350 6.7 101630 32
2010-04-23 06:38 51°15.679 2°53.934 8 349 6.9 101630 33
2010-04-23 06:39 51°15.907 2°53.823 7.2 348 6.9 101630 31
2010-04-23 06:40 51°16.127 2°53.685 7.7 349 6.9 101640 32
2010-04-23 06:41 51°16.334 2°53.517 7.2 352 7 101630 32
2010-04-23 06:42 51°16.539 2°53.34 6.7 351 7 101640 32
2010-04-23 06:43 51°16.746 2°53.168 6.2 352 7 101640 33
2010-04-23 06:44 51°16.948 2°52.988 6.6 353 7.1 101630 33
2010-04-23 06:45 51°17.145 2°52.789 6.9 351 7.2 101640 33
2010-04-23 06:46 51°17.37 2°52.668 8 347 7.2 101640 33
2010-04-23 06:47 51°17.609 2°52.607 7.1 348 7.2 101630 34
2010-04-23 06:48 51°17.85 2°52.557 7.3 349 7.2 101630 34
2010-04-23 06:49 51°18.092 2°52.502 8.2 349 7.3 101630 32
2010-04-23 06:50 51°18.332 2°52.445 8.3 347 7.3 101640 33
2010-04-23 06:51 51°18.571 2°52.387 7.3 348 7.4 101630 33
2010-04-23 06:52 51°18.81 2°52.329 8.3 348 7.4 101630 32
2010-04-23 06:53 51°19.048 2°52.271 7.4 346 7.4 101630 32
2010-04-23 06:54 51°19.286 2°52.209 9.1 347 7.4 101640 34
2010-04-23 06:55 51°19.527 2°52.15 7.8 350 7.4 101630 34
2010-04-23 06:56 51°19.763 2°52.058 6.9 354 7.4 101630 32
2010-04-23 06:57 51°19.977 2°51.887 6.2 352 7.5 101640 34
2010-04-23 06:58 51°20.176 2°51.68 6.7 353 7.5 101640 33
2010-04-23 06:59 51°20.351 2°51.436 5.3 353 7.5 101640 34
2010-04-23 07:00 51°20.53 2°51.199 6 349 7.6 101640 32
2010-04-23 07:01 51°20.72 2°50.977 6.9 349 7.5 101640 33
2010-04-23 07:02 51°20.909 2°50.754 6.3 348 7.5 101640 33
2010-04-23 07:03 51°21.103 2°50.535 5.7 349 7.5 101650 35
2010-04-23 07:04 51°21.286 2°50.324 7.5 347 7.6 101640 35
2010-04-23 07:07 51°21.909 2°49.629 7.2 348 7.5 101650 34
2010-04-23 07:08 51°22.096 2°49.395 6.3 349 7.5 101640 35
2010-04-23 07:09 51°22.26 2°49.128 5.9 347 7.5 101650 34
2010-04-23 07:10 51°22.423 2°48.863 7.3 349 7.4 101650 34
2010-04-23 07:11 51°22.587 2°48.602 6 349 7.4 101650 35
2010-04-23 07:12 51°22.723 2°48.313 5.6 352 7.4 101660 34
2010-04-23 07:13 51°22.851 2°48.014 5.5 351 7.4 101660 33
2010-04-23 07:14 51°22.979 2°47.715 5.6 349 7.4 101660 34
2010-04-23 07:15 51°23.109 2°47.418 5.3 353 7.4 101660 36
2010-04-23 07:16 51°23.24 2°47.12 5.9 350 7.4 101660 34
2010-04-23 07:17 51°23.368 2°46.813 5.6 350 7.3 101660 37
2010-04-23 07:18 51°23.493 2°46.5 4.9 351 7.3 101650 34
2010-04-23 07:19 51°23.603 2°46.175 5.6 347 7.3 101660 35
2010-04-23 07:20 51°23.713 2°45.848 5 353 7.3 101650 37
2010-04-23 07:21 51°23.821 2°45.519 5.1 350 7.3 101660 36
2010-04-23 07:22 51°23.93 2°45.194 5.1 353 7.3 101670 35
2010-04-23 07:23 51°24.04 2°44.873 4.8 350 7.3 101660 37
2010-04-23 07:24 51°24.148 2°44.55 5 351 7.3 101670 38
2010-04-23 07:25 51°24.237 2°44.299 3.1 6 7.3 101660 34
2010-04-23 07:26 51°24.308 2°44.123 2.7 9 7.3 101670 34
2010-04-23 07:27 51°24.379 2°43.951 3 8 7.3 101670 35
2010-04-23 07:28 51°24.441 2°43.832 2.7 10 7.4 101670 36
2010-04-23 07:29 51°24.504 2°43.723 3.5 13 7.4 101670 33
2010-04-23 07:30 51°24.57 2°43.673 3.9 10 7.4 101660 35
2010-04-23 07:31 51°24.612 2°43.688 3.6 7 7.5 101660 34
2010-04-23 07:32 51°24.645 2°43.71 4 8 7.4 101660 37
2010-04-23 07:33 51°24.672 2°43.728 3.7 21 7.4 101660 34
2010-04-23 07:34 51°24.696 2°43.746 3.4 23 7.4 101660 34
2010-04-23 07:35 51°24.719 2°43.764 3.5 22 7.4 101660 34
2010-04-23 07:36 51°24.726 2°43.802 4 31 7.5 101660 37
2010-04-23 07:37 51°24.729 2°43.849 2.8 42 7.5 101670 36
2010-04-23 07:38 51°24.733 2°43.825 -999 54 7.6 101660 34
2010-04-23 07:39 51°24.704 2°43.781 1.8 55 7.7 101660 35
2010-04-23 07:40 51°24.688 2°43.737 1.5 52 7.8 101670 33
2010-04-23 07:41 51°24.675 2°43.716 2.1 53 7.9 101670 37
2010-04-23 07:42 51°24.671 2°43.7 1.7 52 7.8 101670 34
2010-04-23 07:43 51°24.678 2°43.698 0.9 53 8 101670 37
2010-04-23 07:44 51°24.686 2°43.703 1.2 58 8.4 101670 34
2010-04-23 07:45 51°24.694 2°43.712 1.2 56 8.7 101670 34
2010-04-23 07:46 51°24.694 2°43.712 2.5 51 8.6 101670 33
2010-04-23 07:47 51°24.683 2°43.708 2.4 50 8.5 101670 33
2010-04-23 07:48 51°24.678 2°43.696 2.1 50 8.3 101670 37
2010-04-23 07:49 51°24.671 2°43.694 2.8 56 8.1 101670 36
2010-04-23 07:50 51°24.669 2°43.708 3.2 310 8 101670 36
2010-04-23 07:51 51°24.673 2°43.73 3.5 50 8 101670 36
2010-04-23 07:52 51°24.678 2°43.756 2.9 305 7.9 101680 36
2010-04-23 07:53 51°24.685 2°43.784 3.1 302 8 101680 31
2010-04-23 07:54 51°24.693 2°43.811 2.5 302 8 101670 33
2010-04-23 07:55 51°24.687 2°43.834 1.4 60 7.9 101680 32
2010-04-23 07:56 51°24.681 2°43.816 1.3 54 8 101680 33
2010-04-23 07:57 51°24.677 2°43.782 1.6 59 7.9 101680 32
2010-04-23 07:58 51°24.669 2°43.748 2.3 53 7.9 101680 34
2010-04-23 07:59 51°24.67 2°43.716 1.4 54 7.9 101680 36
2010-04-23 08:00 51°24.672 2°43.699 1.3 51 8.2 101680 37
2010-04-23 08:01 51°24.678 2°43.7 2.3 51 8.4 101680 36
2010-04-23 08:02 51°24.683 2°43.705 2.1 51 8.4 101680 32
2010-04-23 08:03 51°24.674 2°43.693 2.4 52 8.2 101680 36
2010-04-23 08:04 51°24.661 2°43.687 3.5 55 8.1 101680 36
2010-04-23 08:05 51°24.661 2°43.702 3.3 52 8 101680 36
2010-04-23 08:06 51°24.663 2°43.724 3.5 50 7.9 101670 33
2010-04-23 08:07 51°24.667 2°43.748 3.5 51 7.9 101680 36
2010-04-23 08:08 51°24.673 2°43.771 3.8 57 7.9 101680 36
2010-04-23 08:09 51°24.693 2°43.8 3.5 52 7.9 101680 35
2010-04-23 08:10 51°24.703 2°43.821 3.2 58 8 101680 36
2010-04-23 08:11 51°24.705 2°43.829 2.3 52 7.8 101680 34
2010-04-23 08:12 51°24.7 2°43.818 2 50 7.8 101680 33
2010-04-23 08:13 51°24.686 2°43.791 0.6 52 7.8 101680 33
2010-04-23 08:14 51°24.683 2°43.751 1 57 7.8 101680 36
2010-04-23 08:15 51°24.681 2°43.71 2.5 51 8 101680 35
2010-04-23 08:16 51°24.676 2°43.687 3.5 50 8 101690 33
2010-04-23 08:17 51°24.673 2°43.691 3.2 51 8 101690 33
2010-04-23 08:18 51°24.675 2°43.7 3.8 53 7.9 101690 32
2010-04-23 08:19 51°24.679 2°43.712 3 52 7.8 101690 33
2010-04-23 08:20 51°24.684 2°43.728 3.8 59 7.7 101690 33
2010-04-23 08:21 51°24.69 2°43.746 4.1 53 7.8 101690 36
2010-04-23 08:22 51°24.695 2°43.764 3.8 56 7.7 101700 32
2010-04-23 08:23 51°24.674 2°43.797 5.2 308 7.7 101690 35
2010-04-23 08:24 51°24.672 2°43.953 7.6 306 7.9 101690 33
2010-04-23 08:25 51°24.712 2°44.279 8.8 306 8.1 101670 32
2010-04-23 08:26 51°24.748 2°44.676 9.4 303 8.1 101680 33
2010-04-23 08:27 51°24.721 2°45.068 8 306 8.2 101670 35
2010-04-23 08:28 51°24.64 2°45.426 7.9 304 8.2 101670 33
2010-04-23 08:29 51°24.54 2°45.779 8.6 306 8.2 101670 34
2010-04-23 08:30 51°24.452 2°46.104 7.2 305 8.1 101670 33
2010-04-23 08:31 51°24.41 2°46.299 5.6 306 8.1 101680 35
2010-04-23 08:32 51°24.375 2°46.372 3 308 8.1 101690 35
2010-04-23 08:33 51°24.352 2°46.38 2.9 55 8.1 101700 32
2010-04-23 08:34 51°24.349 2°46.364 2.8 51 8.1 101700 35
2010-04-23 08:35 51°24.353 2°46.342 2.6 58 8 101700 33
2010-04-23 08:36 51°24.354 2°46.248 3.3 25 7.9 101690 32
2010-04-23 08:37 51°24.401 2°46.148 4.3 13 7.9 101690 33
2010-04-23 08:38 51°24.467 2°46.109 3.3 4 7.8 101700 33
2010-04-23 08:39 51°24.532 2°46.104 4.7 2 7.8 101690 32
2010-04-23 08:40 51°24.595 2°46.122 4.6 348 7.7 101680 33
2010-04-23 08:41 51°24.656 2°46.16 5 343 7.6 101680 33
2010-04-23 08:42 51°24.708 2°46.221 5.4 330 7.7 101680 33
2010-04-23 08:43 51°24.743 2°46.304 5.4 306 7.8 101690 34
2010-04-23 08:44 51°24.777 2°46.403 5 326 7.9 101690 35
2010-04-23 08:45 51°24.817 2°46.501 6.1 329 8 101680 33
2010-04-23 08:46 51°24.856 2°46.587 5.7 304 8 101680 32
2010-04-23 08:47 51°24.884 2°46.673 6 308 8 101680 32
2010-04-23 08:48 51°24.9 2°46.763 5.8 308 8.1 101680 32
2010-04-23 08:49 51°24.916 2°46.862 5.7 303 8.1 101680 33
2010-04-23 08:50 51°24.934 2°46.962 6.1 304 8.1 101670 32
2010-04-23 08:51 51°24.951 2°47.063 6.3 309 8.1 101680 35
2010-04-23 08:52 51°24.968 2°47.166 5.9 310 8.1 101680 34
2010-04-23 08:53 51°24.986 2°47.268 6.5 302 8.2 101670 34
2010-04-23 08:54 51°25.005 2°47.37 5.6 305 8.2 101680 33
2010-04-23 08:55 51°25.027 2°47.471 6.2 309 8.3 101680 32
2010-04-23 08:56 51°25.054 2°47.57 6.1 304 8.3 101680 34
2010-04-23 08:57 51°25.082 2°47.67 4.9 325 8.3 101680 31
2010-04-23 08:58 51°25.109 2°47.772 6 310 8.4 101690 32
2010-04-23 08:59 51°25.136 2°47.873 5.3 307 8.4 101690 32
2010-04-23 09:00 51°25.161 2°47.972 4.7 325 8.4 101690 35
2010-04-23 09:01 51°25.186 2°48.07 5.8 308 8.4 101690 35
2010-04-23 09:02 51°25.21 2°48.168 5.9 321 8.4 101690 35
2010-04-23 09:03 51°25.236 2°48.266 4.4 305 8.4 101690 34
2010-04-23 09:04 51°25.261 2°48.364 6 322 8.5 101690 34
2010-04-23 09:05 51°25.283 2°48.463 5.8 309 8.4 101690 34
2010-04-23 09:06 51°25.296 2°48.563 6.1 308 8.4 101690 35
2010-04-23 09:07 51°25.305 2°48.664 5.8 306 8.3 101690 33
2010-04-23 09:08 51°25.314 2°48.765 5.5 301 8.4 101690 33
2010-04-23 09:09 51°25.324 2°48.866 5.8 307 8.3 101690 32
2010-04-23 09:10 51°25.333 2°48.968 5.6 308 8.3 101690 35
2010-04-23 09:11 51°25.342 2°49.067 5.7 302 8.3 101690 32
2010-04-23 09:12 51°25.342 2°49.168 5.6 306 8.3 101690 32
2010-04-23 09:13 51°25.341 2°49.262 5.6 301 8.3 101690 33
2010-04-23 09:14 51°25.34 2°49.359 5.3 303 8.3 101690 35
2010-04-23 09:15 51°25.339 2°49.451 5.1 308 8.3 101690 32
2010-04-23 09:16 51°25.333 2°49.544 6.4 307 8.3 101690 33
2010-04-23 09:17 51°25.315 2°49.631 5.7 307 8.3 101700 33
2010-04-23 09:18 51°25.288 2°49.704 4.8 308 8.3 101700 33
2010-04-23 09:19 51°25.254 2°49.744 3.6 53 8.4 101700 36
2010-04-23 09:20 51°25.235 2°49.735 1.5 51 8.3 101710 33
2010-04-23 09:21 51°25.243 2°49.69 3.9 29 8.3 101710 32
2010-04-23 09:22 51°25.275 2°49.61 3.4 19 8.2 101710 34
2010-04-23 09:23 51°25.325 2°49.427 3.5 25 8.2 101710 36
2010-04-23 09:24 51°25.32 2°49.335 2.4 52 8.1 101710 36
2010-04-23 09:25 51°25.303 2°49.301 2.5 51 8.1 101710 35
2010-04-23 09:26 51°25.287 2°49.296 3.7 50 8 101710 36
2010-04-23 09:27 51°25.255 2°49.282 1.7 56 8.1 101700 33
2010-04-23 09:28 51°25.204 2°49.114 0.1 336 8.1 101700 35
2010-04-23 09:29 51°25.115 2°48.871 0.7 342 8.3 101710 34
2010-04-23 09:30 51°25.02 2°48.614 0.1 2 8.3 101710 37
2010-04-23 09:31 51°24.974 2°48.471 1.5 52 8.4 101710 33
2010-04-23 09:32 51°24.972 2°48.437 1.9 57 8.3 101710 33
2010-04-23 09:33 51°24.974 2°48.438 1.9 52 8.4 101710 38
2010-04-23 09:34 51°24.976 2°48.445 1.7 52 8.9 101710 38
2010-04-23 09:35 51°24.979 2°48.455 2.2 54 9.1 101710 34
2010-04-23 09:36 51°24.982 2°48.467 3.2 50 9.1 101710 37
2010-04-23 09:37 51°24.985 2°48.481 3.1 50 8.7 101710 33
2010-04-23 09:38 51°24.988 2°48.496 3.9 51 8.3 101720 33
2010-04-23 09:39 51°24.991 2°48.513 4.1 55 8.2 101720 36
2010-04-23 09:40 51°24.995 2°48.53 4.6 55 8.1 101710 37
2010-04-23 09:41 51°24.999 2°48.55 4.1 303 8.1 101710 35
2010-04-23 09:42 51°25.004 2°48.569 3 309 8.1 101710 33
2010-04-23 09:43 51°25.011 2°48.593 2.5 303 8.2 101710 37
2010-04-23 09:44 51°25.018 2°48.617 3.7 303 8.3 101710 36
2010-04-23 09:45 51°25.025 2°48.641 3.9 305 8.3 101710 32
2010-04-23 09:46 51°25.032 2°48.665 5 306 8.2 101700 34
2010-04-23 09:47 51°25.04 2°48.689 5.1 302 8.2 101710 33
2010-04-23 09:48 51°25.048 2°48.711 4.6 309 8.3 101700 34
2010-04-23 09:49 51°25.056 2°48.732 4.5 307 8.4 101700 35
2010-04-23 09:50 51°25.066 2°48.753 3.7 302 8.4 101710 34
2010-04-23 09:51 51°25.075 2°48.772 4.3 307 8.5 101710 34
2010-04-23 09:52 51°25.084 2°48.791 2.9 300 8.4 101710 34
2010-04-23 09:53 51°25.094 2°48.81 2.6 308 8.4 101710 33
2010-04-23 09:54 51°25.104 2°48.828 2.8 306 8.3 101710 34
2010-04-23 09:55 51°25.113 2°48.846 3 302 8.2 101710 37
2010-04-23 09:56 51°25.123 2°48.863 4.6 308 8.3 101710 36
2010-04-23 09:57 51°25.133 2°48.88 2.9 309 8.3 101710 37
2010-04-23 09:58 51°25.142 2°48.896 3.5 310 8.2 101710 34
2010-04-23 09:59 51°25.152 2°48.912 3.8 302 8.1 101710 37
2010-04-23 10:00 51°25.169 2°48.92 4 55 8.2 101710 36
2010-04-23 10:01 51°25.197 2°48.929 3.3 52 8.1 101720 32
2010-04-23 10:02 51°25.184 2°48.892 1.8 31 8.2 101720 33
2010-04-23 10:03 51°25.238 2°48.726 6.7 356 8.1 101710 33
2010-04-23 10:04 51°25.426 2°48.641 8.7 342 7.9 101700 34
2010-04-23 10:05 51°25.654 2°48.704 9.4 338 7.9 101700 36
2010-04-23 10:06 51°25.886 2°48.85 9.1 337 8 101700 35
2010-04-23 10:07 51°26.11 2°48.989 9.9 337 8 101700 35
2010-04-23 10:08 51°26.34 2°49.126 8.8 338 8.1 101710 33
2010-04-23 10:09 51°26.563 2°49.292 9.5 335 8.1 101700 35
2010-04-23 10:10 51°26.777 2°49.488 8.8 336 8 101700 33
2010-04-23 10:11 51°26.989 2°49.683 9.1 336 8.2 101700 35
2010-04-23 10:12 51°27.202 2°49.878 9.1 338 8.1 101700 33
2010-04-23 10:13 51°27.419 2°50.075 9.2 335 8.1 101700 35
2010-04-23 10:14 51°27.628 2°50.265 9.2 337 8.1 101700 34
2010-04-23 10:15 51°27.911 2°50.522 9.3 335 8.1 101700 35
2010-04-23 10:17 51°28.314 2°50.881 8.7 335 8.2 101680 33
2010-04-23 10:18 51°28.526 2°51.069 9.6 338 8.1 101700 33
2010-04-23 10:19 51°28.744 2°51.263 9.3 337 8.1 101710 34
2010-04-23 10:20 51°28.959 2°51.454 8.9 337 8.2 101700 34
2010-04-23 10:21 51°29.171 2°51.64 10.1 338 8.2 101700 34
2010-04-23 10:22 51°29.391 2°51.828 8.8 338 8.1 101710 33
2010-04-23 10:23 51°29.6 2°52.008 8.4 338 8.2 101700 34
2010-04-23 10:24 51°29.819 2°52.197 9.2 337 8.2 101700 34
2010-04-23 10:25 51°30.031 2°52.376 8.8 339 8.2 101710 33
2010-04-23 10:26 51°30.264 2°52.526 8.5 339 8.1 101700 33
2010-04-23 10:27 51°30.488 2°52.655 8.7 340 8.2 101700 34
2010-04-23 10:28 51°30.721 2°52.787 9.1 339 8.1 101710 33
2010-04-23 10:29 51°30.951 2°52.914 9.3 340 8.2 101700 32
2010-04-23 10:30 51°31.176 2°53.041 9 339 8.1 101700 33
2010-04-23 10:31 51°31.411 2°53.173 9.1 340 8.1 101710 34
2010-04-23 10:32 51°31.633 2°53.3 8.5 339 8.1 101710 34
2010-04-23 10:33 51°31.865 2°53.434 8.7 340 8.1 101710 34
2010-04-23 10:34 51°32.096 2°53.567 9.1 338 8.1 101700 35
2010-04-23 10:35 51°32.324 2°53.697 8.2 339 8.1 101710 33
2010-04-23 10:36 51°32.547 2°53.826 8.6 339 8.2 101700 33
2010-04-23 10:37 51°32.772 2°53.983 8.9 339 8.2 101700 35
2010-04-23 10:38 51°32.984 2°54.167 9 337 8.2 101720 35
2010-04-23 10:39 51°33.167 2°54.401 8.8 334 8.2 101710 35
2010-04-23 10:40 51°33.325 2°54.698 9 331 8.2 101720 33
2010-04-23 10:41 51°33.382 2°55.028 8.6 322 8.1 101710 33
2010-04-23 10:42 51°33.298 2°55.369 8 320 8.1 101710 35
2010-04-23 10:43 51°33.206 2°55.673 6.7 317 8.2 101710 34
2010-04-23 10:44 51°33.189 2°55.846 5.3 34 8.2 101710 35
2010-04-23 10:45 51°33.176 2°55.918 4.1 244 8.2 101720 35
2010-04-23 10:46 51°33.163 2°55.959 3.8 250 8.3 101720 33
2010-04-23 10:47 51°33.153 2°55.99 4.1 250 8.4 101730 36
2010-04-23 10:48 51°33.147 2°56.015 3.6 249 8.5 101720 35
2010-04-23 10:49 51°33.145 2°56.038 4 242 8.5 101720 32
2010-04-23 10:50 51°33.145 2°56.058 3.6 248 8.6 101730 32
2010-04-23 10:51 51°33.148 2°56.075 3.8 242 8.7 101730 36
2010-04-23 10:52 51°33.151 2°56.089 3 240 8.7 101730 34
2010-04-23 10:53 51°33.156 2°56.103 2.9 244 8.7 101720 32
2010-04-23 10:54 51°33.161 2°56.115 3.4 242 8.8 101720 33
2010-04-23 10:55 51°33.167 2°56.121 4.4 249 8.8 101730 33
2010-04-23 10:56 51°33.174 2°56.12 4.6 258 8.8 101730 33
2010-04-23 10:57 51°33.183 2°56.116 4 257 8.8 101730 32
2010-04-23 10:58 51°33.192 2°56.113 2.3 262 8.8 101730 33
2010-04-23 10:59 51°33.2 2°56.11 2.4 265 8.8 101730 33
2010-04-23 11:00 51°33.207 2°56.107 2.7 264 8.7 101730 33
2010-04-23 11:01 51°33.213 2°56.104 2.1 264 8.6 101730 32
2010-04-23 11:02 51°33.219 2°56.102 2.6 265 8.5 101730 33
2010-04-23 11:03 51°33.224 2°56.1 2.2 262 8.5 101730 36
2010-04-23 11:04 51°33.228 2°56.099 3.1 262 8.6 101730 33
2010-04-23 11:05 51°33.233 2°56.098 3.3 259 8.6 101730 33
2010-04-23 11:06 51°33.236 2°56.098 3.9 259 8.7 101730 33
2010-04-23 11:07 51°33.239 2°56.098 4.3 259 8.7 101720 33
2010-04-23 11:08 51°33.242 2°56.099 4 256 8.8 101730 33
2010-04-23 11:09 51°33.244 2°56.1 3.6 253 8.8 101720 34
2010-04-23 11:10 51°33.247 2°56.1 4.2 260 8.8 101720 35
2010-04-23 11:11 51°33.25 2°56.1 3.4 252 8.9 101720 35
2010-04-23 11:12 51°33.253 2°56.1 4.1 257 8.9 101720 33
2010-04-23 11:13 51°33.255 2°56.099 4.3 256 8.9 101720 35
2010-04-23 11:14 51°33.257 2°56.098 3.8 253 9 101720 33
2010-04-23 11:15 51°33.259 2°56.097 4 252 9.1 101720 36
2010-04-23 11:16 51°33.261 2°56.096 3.8 252 9.1 101720 35
2010-04-23 11:17 51°33.263 2°56.094 3.9 252 9.1 101720 36
2010-04-23 11:18 51°33.266 2°56.092 3.8 251 9.1 101730 34
2010-04-23 11:19 51°33.267 2°56.09 4.1 252 9.1 101720 33
2010-04-23 11:20 51°33.269 2°56.087 3.6 252 9.1 101720 33
2010-04-23 11:21 51°33.27 2°56.085 3.8 253 9.1 101720 36
2010-04-23 11:22 51°33.272 2°56.082 3.8 251 9.1 101720 33
2010-04-23 11:23 51°33.273 2°56.079 4.1 256 9.1 101720 33
2010-04-23 11:24 51°33.275 2°56.078 4 253 9.2 101720 36
2010-04-23 11:25 51°33.277 2°56.075 3.7 253 9.2 101720 34
2010-04-23 11:26 51°33.278 2°56.071 3.6 252 9.2 101720 36
2010-04-23 11:27 51°33.28 2°56.069 3.6 254 9.2 101720 36
2010-04-23 11:28 51°33.282 2°56.066 3.7 249 9.2 101720 33
2010-04-23 11:29 51°33.283 2°56.063 3.3 250 9.3 101720 34
2010-04-23 11:30 51°33.284 2°56.06 3.4 251 9.3 101720 34
2010-04-23 11:31 51°33.285 2°56.056 3.2 251 9.3 101720 34
2010-04-23 11:32 51°33.287 2°56.052 3.7 255 9.3 101720 35
2010-04-23 11:33 51°33.288 2°56.049 3.6 255 9.3 101720 33
2010-04-23 11:34 51°33.289 2°56.046 4.1 250 9.3 101720 36
2010-04-23 11:35 51°33.29 2°56.043 3.6 248 9.4 101720 36
2010-04-23 11:36 51°33.292 2°56.039 3.6 249 9.3 101720 34
2010-04-23 11:37 51°33.293 2°56.036 3.4 246 9.3 101720 33
2010-04-23 11:38 51°33.295 2°56.032 2.8 249 9.3 101720 36
2010-04-23 11:39 51°33.297 2°56.027 3.6 250 9.3 101720 36
2010-04-23 11:40 51°33.297 2°56.022 3.7 251 9.4 101720 33
2010-04-23 11:41 51°33.299 2°56.018 3.7 252 9.4 101720 36
2010-04-23 11:42 51°33.301 2°56.012 3.4 255 9.3 101720 36
2010-04-23 11:43 51°33.302 2°56.007 3.6 249 9.3 101720 33
2010-04-23 11:44 51°33.302 2°56.001 3.1 251 9.3 101720 35
2010-04-23 11:45 51°33.302 2°55.995 3.5 249 9.3 101720 33
2010-04-23 11:46 51°33.303 2°55.989 3.4 252 9.4 101720 34
2010-04-23 11:47 51°33.304 2°55.983 3.4 254 9.4 101720 36
2010-04-23 11:48 51°33.303 2°55.977 3.7 252 9.4 101720 34
2010-04-23 11:49 51°33.303 2°55.971 3 254 9.4 101720 34
2010-04-23 11:50 51°33.303 2°55.965 3.3 251 9.4 101710 33
2010-04-23 11:51 51°33.29 2°55.971 3.2 258 9.4 101710 33
2010-04-23 11:52 51°33.251 2°55.984 2.7 260 9.4 101720 36
2010-04-23 11:53 51°33.203 2°55.987 2.2 267 9.2 101720 33
2010-04-23 11:54 51°33.162 2°55.969 1.9 32 9.1 101720 35
2010-04-23 11:55 51°33.135 2°55.939 1.9 37 8.9 101720 35
2010-04-23 11:56 51°33.117 2°55.908 1.2 39 8.6 101710 33
2010-04-23 11:57 51°33.114 2°55.892 2.6 34 8.7 101710 35
2010-04-23 11:58 51°33.121 2°55.888 1.7 35 8.5 101720 36
2010-04-23 11:59 51°33.13 2°55.887 2.4 38 8.7 101710 34
2010-04-23 12:00 51°33.135 2°55.885 2.4 38 8.6 101710 36
2010-04-23 12:01 51°33.139 2°55.883 3 34 8.5 101710 36
2010-04-23 12:02 51°33.141 2°55.879 2.6 37 8.4 101710 37
2010-04-23 12:03 51°33.142 2°55.874 3.5 41 8.2 101710 36
2010-04-23 12:04 51°33.142 2°55.867 3 38 8.2 101710 33
2010-04-23 12:05 51°33.143 2°55.86 3.1 36 8.1 101710 33
2010-04-23 12:06 51°33.142 2°55.853 3.1 37 8.2 101700 34
2010-04-23 12:07 51°33.141 2°55.845 2.8 30 8.2 101710 33
2010-04-23 12:08 51°33.14 2°55.838 2.7 31 8.2 101710 33
2010-04-23 12:09 51°33.137 2°55.832 2.7 31 8.3 101710 34
2010-04-23 12:10 51°33.134 2°55.825 2.7 33 8.3 101710 36
2010-04-23 12:11 51°33.132 2°55.818 3 34 8.3 101710 34
2010-04-23 12:12 51°33.128 2°55.811 3 29 8.2 101710 32
2010-04-23 12:13 51°33.125 2°55.804 2.3 33 8.3 101710 34
2010-04-23 12:14 51°33.121 2°55.798 2.8 29 8.3 101710 36
2010-04-23 12:15 51°33.117 2°55.792 3.4 29 8.4 101710 35
2010-04-23 12:16 51°33.111 2°55.786 2.7 30 8.3 101710 34
2010-04-23 12:17 51°33.107 2°55.78 2.6 31 8.3 101710 35
2010-04-23 12:18 51°33.101 2°55.775 2.7 34 8.2 101710 33
2010-04-23 12:19 51°33.094 2°55.779 3.9 40 8.3 101710 34
2010-04-23 12:20 51°33.09 2°55.855 5 34 8.3 101710 32
2010-04-23 12:21 51°33.106 2°55.959 4.7 38 8.2 101710 34
2010-04-23 12:22 51°33.137 2°56.063 3.8 32 8.1 101710 34
2010-04-23 12:23 51°33.174 2°56.149 2.3 34 8.4 101710 37
2010-04-23 12:24 51°33.192 2°56.19 3.3 32 8.5 101710 33
2010-04-23 12:25 51°33.192 2°56.186 3.4 39 8.4 101710 36
2010-04-23 12:26 51°33.189 2°56.182 2.7 32 8.3 101710 36
2010-04-23 12:27 51°33.185 2°56.177 2.7 32 8.3 101710 34
2010-04-23 12:28 51°33.181 2°56.171 3.2 33 8.3 101710 33
2010-04-23 12:29 51°33.175 2°56.165 3.1 21 8.3 101710 34
2010-04-23 12:30 51°33.168 2°56.158 3.3 26 8.3 101710 34
2010-04-23 12:31 51°33.16 2°56.15 2.7 20 8.3 101710 35
2010-04-23 12:32 51°33.151 2°56.141 3.1 17 8.3 101710 36
2010-04-23 12:33 51°33.142 2°56.133 3.4 26 8.2 101710 34
2010-04-23 12:34 51°33.134 2°56.124 3 22 8.3 101710 36
2010-04-23 12:35 51°33.124 2°56.115 2.6 25 8.3 101710 34
2010-04-23 12:36 51°33.115 2°56.105 3.1 30 8.3 101710 35
2010-04-23 12:37 51°33.106 2°56.096 2.6 28 8.3 101710 34
2010-04-23 12:38 51°33.096 2°56.087 2.8 23 8.3 101710 35
2010-04-23 12:39 51°33.086 2°56.078 2.9 32 8.3 101710 33
2010-04-23 12:40 51°33.077 2°56.069 2.6 29 8.3 101710 35
2010-04-23 12:41 51°33.067 2°56.059 3.2 29 8.3 101710 36
2010-04-23 12:42 51°33.056 2°56.049 2.8 29 8.3 101710 36
2010-04-23 12:43 51°33.045 2°56.04 2.7 24 8.3 101710 33
2010-04-23 12:44 51°33.035 2°56.031 3.3 27 8.3 101710 32
2010-04-23 12:45 51°33.023 2°56.022 2.7 27 8.3 101710 34
2010-04-23 12:46 51°33.012 2°56.012 3.1 31 8.3 101720 36
2010-04-23 12:47 51°32.997 2°56.02 2.8 39 8.3 101710 34
2010-04-23 12:48 51°32.989 2°56.069 4 44 8.3 101710 34
2010-04-23 12:49 51°32.997 2°56.136 4.5 35 8.2 101710 33
2010-04-23 12:50 51°33.02 2°56.204 4.6 38 8.3 101710 34
2010-04-23 12:51 51°33.051 2°56.264 3.2 38 8.2 101710 33
2010-04-23 12:52 51°33.082 2°56.308 2.1 31 8.4 101710 34
2010-04-23 12:53 51°33.083 2°56.304 2.6 37 8.7 101710 36
2010-04-23 12:54 51°33.075 2°56.266 2.6 28 8.7 101710 33
2010-04-23 12:55 51°33.068 2°56.236 2.8 28 8.6 101710 34
2010-04-23 12:56 51°33.061 2°56.21 2.8 30 8.6 101710 36
2010-04-23 12:57 51°33.055 2°56.186 2.9 23 8.5 101710 34
2010-04-23 12:58 51°33.048 2°56.166 3.3 28 8.5 101710 36
2010-04-23 12:59 51°33.039 2°56.145 2.8 25 8.5 101710 34
2010-04-23 13:00 51°33.031 2°56.126 2.5 21 8.4 101720 34
2010-04-23 13:01 51°33.022 2°56.108 3.1 23 8.5 101720 36
2010-04-23 13:02 51°33.012 2°56.091 2 21 8.4 101720 33
2010-04-23 13:03 51°33.002 2°56.072 2.9 12 8.5 101720 35
2010-04-23 13:04 51°32.995 2°56.049 2.6 5 8.5 101720 34
2010-04-23 13:05 51°32.995 2°56.023 3 354 8.4 101720 33
2010-04-23 13:06 51°33.004 2°56 3.7 342 8.3 101710 33
2010-04-23 13:07 51°33.021 2°55.986 3.8 345 8.4 101710 33
2010-04-23 13:08 51°33.043 2°55.965 3.7 350 8.4 101710 35
2010-04-23 13:09 51°33.067 2°55.937 3.5 344 8.3 101710 36
2010-04-23 13:10 51°33.092 2°55.929 3.3 331 8.2 101720 36
2010-04-23 13:11 51°33.117 2°55.93 3.9 342 8.4 101720 36
2010-04-23 13:12 51°33.141 2°55.898 3.9 355 8.4 101720 33
2010-04-23 13:13 51°33.167 2°55.812 4.2 -999 8.3 101710 34
2010-04-23 13:14 51°33.197 2°55.674 4.5 355 8.2 101720 34
2010-04-23 13:15 51°33.246 2°55.485 4.4 357 8.1 101710 34
2010-04-23 13:16 51°33.294 2°55.401 4.1 345 8.1 101710 36
2010-04-23 13:17 51°33.333 2°55.399 4 324 8.2 101720 34
2010-04-23 13:18 51°33.353 2°55.435 3.9 31 8.3 101720 36
2010-04-23 13:19 51°33.373 2°55.482 4.3 319 8.5 101710 36
2010-04-23 13:20 51°33.404 2°55.532 4.7 322 8.6 101710 34
2010-04-23 13:21 51°33.441 2°55.591 4.6 320 8.7 101710 36
2010-04-23 13:22 51°33.513 2°55.72 7.2 324 8.7 101700 34
2010-04-23 13:23 51°33.602 2°55.877 7.4 324 8.8 101700 34
2010-04-23 13:24 51°33.666 2°56.074 6.4 32 8.8 101700 35
2010-04-23 13:25 51°33.677 2°56.294 5.9 33 8.7 101700 34
2010-04-23 13:26 51°33.663 2°56.523 5.8 35 8.7 101700 36
2010-04-23 13:27 51°33.65 2°56.744 5.5 38 8.6 101700 35
2010-04-23 13:28 51°33.616 2°56.871 3.9 252 8.6 101710 33
2010-04-23 13:29 51°33.549 2°56.916 0.6 35 8.6 101720 33
2010-04-23 13:30 51°33.49 2°56.829 1.9 23 8.8 101710 33
2010-04-23 13:31 51°33.466 2°56.749 2.8 25 8.8 101710 34
2010-04-23 13:32 51°33.451 2°56.688 2.7 23 8.7 101710 34
2010-04-23 13:33 51°33.44 2°56.636 2.8 20 8.6 101710 36
2010-04-23 13:34 51°33.429 2°56.595 3.2 22 8.6 101710 36
2010-04-23 13:35 51°33.416 2°56.558 3.2 21 8.6 101710 34
2010-04-23 13:36 51°33.402 2°56.528 3.2 23 8.5 101710 34
2010-04-23 13:37 51°33.387 2°56.506 3.2 20 8.5 101710 34
2010-04-23 13:38 51°33.372 2°56.491 3.4 21 8.5 101710 36
2010-04-23 13:39 51°33.354 2°56.483 3.8 27 8.4 101710 36
2010-04-23 13:40 51°33.339 2°56.48 3.3 33 8.4 101710 34
2010-04-23 13:41 51°33.326 2°56.479 3.4 38 8.4 101710 33
2010-04-23 13:42 51°33.314 2°56.479 3.8 38 8.4 101710 34
2010-04-23 13:43 51°33.304 2°56.481 3.4 42 8.4 101710 36
2010-04-23 13:44 51°33.294 2°56.482 3.8 45 8.3 101710 36
2010-04-23 13:45 51°33.285 2°56.483 4.2 35 8.3 101710 33
2010-04-23 13:46 51°33.277 2°56.482 3.6 39 8.3 101710 35
2010-04-23 13:47 51°33.27 2°56.48 3.8 31 8.3 101710 36
2010-04-23 13:48 51°33.263 2°56.475 3.2 35 8.3 101710 34
2010-04-23 13:49 51°33.257 2°56.469 2.6 34 8.3 101710 35
2010-04-23 13:50 51°33.252 2°56.461 2.9 32 8.4 101710 34
2010-04-23 13:51 51°33.246 2°56.452 3.4 32 8.3 101710 36
2010-04-23 13:52 51°33.24 2°56.444 3.4 38 8.3 101710 34
2010-04-23 13:53 51°33.233 2°56.437 3.5 36 8.3 101710 33
2010-04-23 13:54 51°33.226 2°56.431 3.6 32 8.2 101710 33
2010-04-23 13:55 51°33.204 2°56.387 3.5 22 8.3 101710 33
2010-04-23 13:56 51°33.194 2°56.29 4.1 8 8.3 101710 34
2010-04-23 13:57 51°33.188 2°56.175 3.7 9 8.4 101710 33
2010-04-23 13:58 51°33.18 2°56.078 3.6 13 8.3 101710 34
2010-04-23 13:59 51°33.172 2°55.99 3.9 13 8.4 101700 35
2010-04-23 14:00 51°33.161 2°55.912 3.4 16 8.3 101700 33
2010-04-23 14:01 51°33.161 2°55.807 4.2 357 8.4 101710 33
2010-04-23 14:02 51°33.218 2°55.613 7.5 346 8.4 101700 36
2010-04-23 14:03 51°33.332 2°55.32 8 347 8.3 101690 35
2010-04-23 14:04 51°33.414 2°54.958 7.2 352 8.3 101690 34
2010-04-23 14:05 51°33.418 2°54.58 5.5 355 8.3 101690 35
2010-04-23 14:06 51°33.308 2°54.245 3.9 356 8.3 101700 34
2010-04-23 14:07 51°33.109 2°54.024 1.6 341 8.2 101700 36
2010-04-23 14:08 51°32.883 2°53.876 2.2 330 8.3 101710 36
2010-04-23 14:09 51°32.652 2°53.747 1.8 328 8.6 101710 34
2010-04-23 14:10 51°32.413 2°53.675 1.1 321 8.7 101710 35
2010-04-23 14:11 51°32.172 2°53.606 1.3 328 8.8 101710 34
2010-04-23 14:12 51°31.929 2°53.534 2 329 9 101710 35
2010-04-23 14:13 51°31.684 2°53.462 1.4 328 9.2 101710 34
2010-04-23 14:14 51°31.439 2°53.39 1.7 328 9.4 101710 36
2010-04-23 14:15 51°31.193 2°53.318 1.3 326 9.5 101710 35
2010-04-23 14:16 51°30.947 2°53.244 1.7 325 9.6 101710 35
2010-04-23 14:17 51°30.7 2°53.169 1.6 331 9.6 101710 35
2010-04-23 14:18 51°30.455 2°53.093 1.2 323 9.7 101710 35
2010-04-23 14:19 51°30.211 2°53.013 0.4 331 9.7 101710 35
2010-04-23 14:20 51°29.97 2°52.933 1.7 322 9.7 101710 34
2010-04-23 14:21 51°29.729 2°52.858 0.8 322 9.8 101700 37
2010-04-23 14:22 51°29.488 2°52.78 0.5 329 9.8 101700 35
2010-04-23 14:23 51°29.245 2°52.697 0.8 321 9.8 101700 36
2010-04-23 14:24 51°29.002 2°52.613 0.7 320 9.9 101700 35
2010-04-23 14:25 51°28.757 2°52.527 1.3 329 10 101700 35
2010-04-23 14:26 51°28.513 2°52.461 0.8 322 10 101700 36
2010-04-23 14:27 51°28.267 2°52.415 1.7 320 10 101700 37
2010-04-23 14:28 51°28.019 2°52.37 1.1 318 10 101700 34
2010-04-23 14:29 51°27.768 2°52.324 1.4 318 10 101700 37
2010-04-23 14:30 51°27.517 2°52.278 1.4 323 10 101700 36
2010-04-23 14:31 51°27.266 2°52.231 0.5 318 10.1 101700 36
2010-04-23 14:32 51°27.016 2°52.208 1.6 36 10.1 101690 36
2010-04-23 14:33 51°26.766 2°52.188 1.8 37 10.1 101690 37
2010-04-23 14:34 51°26.516 2°52.165 1.7 38 10 101700 35
2010-04-23 14:35 51°26.267 2°52.135 0.8 40 10 101700 35
2010-04-23 14:36 51°26.019 2°52.107 0.2 320 10 101690 35
2010-04-23 14:37 51°25.771 2°52.077 1.6 36 10 101700 35
2010-04-23 14:38 51°25.524 2°52.05 1.5 38 10 101690 35
2010-04-23 14:39 51°25.276 2°52.025 0.8 34 10.1 101690 35
2010-04-23 14:40 51°25.029 2°51.995 1 38 10.1 101690 35
2010-04-23 14:41 51°24.78 2°51.963 1.4 235 10.1 101690 34
2010-04-23 14:42 51°24.532 2°51.933 1.8 37 10.1 101690 35
2010-04-23 14:43 51°24.285 2°51.906 1.9 236 10.1 101690 37
2010-04-23 14:44 51°24.037 2°51.878 1.7 33 10 101690 35
2010-04-23 14:45 51°23.79 2°51.849 1.6 315 10 101690 36
2010-04-23 14:46 51°23.543 2°51.819 2.2 31 10.1 101690 35
2010-04-23 14:47 51°23.293 2°51.792 1.6 238 10.1 101690 35
2010-04-23 14:48 51°23.042 2°51.759 1.6 32 10.1 101680 35
2010-04-23 14:49 51°22.79 2°51.724 0.8 238 10.1 101680 35
2010-04-23 14:50 51°22.539 2°51.687 2 32 10.1 101680 35
2010-04-23 14:51 51°22.294 2°51.648 1.5 232 10.2 101680 35
2010-04-23 14:52 51°22.052 2°51.609 1.6 238 10.2 101680 35
2010-04-23 14:53 51°21.806 2°51.574 0.6 241 10.2 101680 35
2010-04-23 14:54 51°21.565 2°51.541 1.8 32 10.2 101680 36
2010-04-23 14:55 51°21.321 2°51.509 1.2 248 10.3 101680 35
2010-04-23 14:56 51°21.079 2°51.474 0.5 33 10.4 101680 35
2010-04-23 14:57 51°20.834 2°51.455 0.8 245 10.4 101680 35
2010-04-23 14:58 51°20.6 2°51.454 1.8 242 10.5 101670 35
2010-04-23 14:59 51°20.353 2°51.459 2.4 239 10.5 101670 34
2010-04-23 15:00 51°20.111 2°51.467 2.8 250 10.5 101680 35
2010-04-23 15:01 51°19.868 2°51.471 1.8 239 10.5 101670 36
2010-04-23 15:02 51°19.623 2°51.471 1.8 250 10.5 101670 37
2010-04-23 15:03 51°19.378 2°51.475 2.8 248 10.5 101670 34
2010-04-23 15:04 51°19.136 2°51.508 2.9 249 10.5 101670 38
2010-04-23 15:05 51°18.894 2°51.545 2.5 243 10.4 101670 37
2010-04-23 15:06 51°18.656 2°51.58 3.3 254 10.4 101670 35
2010-04-23 15:07 51°18.412 2°51.619 2.3 245 10.4 101670 35
2010-04-23 15:08 51°18.17 2°51.656 2.3 253 10.4 101670 36
2010-04-23 15:09 51°17.929 2°51.696 1.5 247 10.4 101670 37
2010-04-23 15:10 51°17.688 2°51.735 3.4 255 10.4 101670 36
2010-04-23 15:11 51°17.445 2°51.779 2.4 249 10.4 101660 35
2010-04-23 15:12 51°17.224 2°51.906 6.2 246 10.4 101660 36
2010-04-23 15:13 51°17.025 2°52.111 6.4 244 10.3 101660 37
2010-04-23 15:14 51°16.827 2°52.316 6.3 247 10.1 101650 37
2010-04-23 15:15 51°16.627 2°52.516 6.1 248 10.1 101650 36
2010-04-23 15:16 51°16.424 2°52.719 5.6 244 10.1 101650 35
2010-04-23 15:17 51°16.223 2°52.911 5.6 248 10 101650 36
2010-04-23 15:18 51°16.021 2°53.1 5.8 246 10 101650 35
2010-04-23 15:19 51°15.797 2°53.22 3.5 256 10 101660 35
2010-04-23 15:20 51°15.568 2°53.323 4.3 251 10 101650 37
2010-04-23 15:21 51°15.343 2°53.437 3.6 248 10 101650 35
2010-04-23 15:22 51°15.135 2°53.586 5.1 249 10 101650 36
2010-04-23 15:23 51°14.924 2°53.743 4.9 245 10.1 101650 38
2010-04-23 15:24 51°14.7 2°53.842 2 259 10.1 101650 35
2010-04-23 15:25 51°14.456 2°53.788 -999 36 10 101660 38
2010-04-23 15:26 51°14.27 2°53.566 4 15 10 101660 36
2010-04-23 15:27 51°14.127 2°53.251 4.8 8 9.9 101660 35
2010-04-23 15:28 51°13.981 2°52.935 3.7 16 9.7 101660 35
2010-04-23 15:29 51°13.849 2°52.603 5.3 11 9.6 101650 36
2010-04-23 15:30 51°13.727 2°52.261 4.7 11 9.5 101650 38
2010-04-23 15:31 51°13.617 2°51.962 4 25 9.3 101660 35
2010-04-23 15:32 51°13.53 2°51.729 4.6 22 9.4 101660 37
2010-04-23 15:33 51°13.469 2°51.554 5 35 9.4 101660 38
2010-04-23 15:34 51°13.434 2°51.511 6.3 40 9.5 101660 39
2010-04-23 15:35 51°13.43 2°51.48 6.8 32 9.4 101680 37
2010-04-23 15:36 51°13.419 2°51.45 7 35 9.4 101680 37
2010-04-23 15:37 51°13.404 2°51.421 6 34 9.2 101670 35
2010-04-23 15:38 51°13.368 2°51.412 6.6 254 9.2 101680 35
2010-04-23 15:39 51°13.351 2°51.478 8.8 317 9.2 101650 35
2010-04-23 15:40 51°13.434 2°51.665 10.8 321 9.3 101630 34
2010-04-23 15:41 51°13.542 2°51.933 10.6 322 9.5 101630 37
2010-04-23 15:42 51°13.66 2°52.198 11.5 320 9.6 101630 36
2010-04-23 15:43 51°13.758 2°52.411 10.4 321 9.6 101630 37
2010-04-23 15:44 51°13.828 2°52.58 9 320 9.6 101630 35
2010-04-23 15:45 51°13.891 2°52.733 9.1 321 9.6 101630 36
2010-04-23 15:46 51°13.949 2°52.876 9.1 321 9.6 101640 35
2010-04-23 15:47 51°14.005 2°53.014 8.7 320 9.6 101640 36
2010-04-23 15:48 51°14.054 2°53.137 8.4 320 9.5 101630 35
2010-04-23 15:49 51°14.083 2°53.22 7.8 317 9.5 101640 35
2010-04-23 15:50 51°14.102 2°53.283 7.9 323 9.5 101640 36
2010-04-23 15:51 51°14.114 2°53.325 7.3 319 9.5 101640 35
2010-04-23 15:52 51°14.122 2°53.351 7.6 322 9.5 101640 36
2010-04-23 15:53 51°14.129 2°53.367 8.4 325 9.5 101640 36
2010-04-23 15:54 51°14.133 2°53.379 7.5 321 9.4 101640 35
2010-04-23 15:55 51°14.134 2°53.39 6.9 321 9.5 101650 34
2010-04-23 15:56 51°14.134 2°53.4 7.2 321 9.5 101640 35
2010-04-23 15:57 51°14.133 2°53.412 6.5 320 9.5 101640 37
2010-04-23 15:58 51°14.131 2°53.424 7.1 318 9.5 101640 34
2010-04-23 15:59 51°14.137 2°53.454 7.5 321 9.5 101640 36
2010-04-23 16:00 51°14.198 2°53.593 9.3 322 9.5 101640 35
2010-04-23 16:01 51°14.28 2°53.798 10.4 322 9.5 101630 35
2010-04-23 16:02 51°14.365 2°54.036 9.6 321 9.6 101620 36
2010-04-23 16:03 51°14.451 2°54.277 9.3 321 9.6 101620 34
2010-04-23 16:04 51°14.55 2°54.519 9.9 323 9.5 101620 34
2010-04-23 16:05 51°14.57 2°54.801 10.2 33 9.6 101610 34
2010-04-23 16:06 51°14.465 2°55.062 7.6 245 9.6 101620 35
2010-04-23 16:07 51°14.289 2°55.253 8.4 246 9.5 101650 34
2010-04-23 16:08 51°14.135 2°55.416 6.8 253 9.6 101650 35
2010-04-23 16:09 51°13.997 2°55.518 3.3 252 9.7 101660 34
2010-04-23 16:10 51°13.897 2°55.589 3.3 263 9.7 101660 34
2010-04-23 16:11 51°13.811 2°55.651 2.5 266 9.8 101660 35
2010-04-23 16:12 51°13.745 2°55.739 3 264 9.8 101660 32
2010-04-23 16:13 51°13.693 2°55.839 3.3 258 9.9 101660 35
2010-04-23 16:14 51°13.667 2°55.932 5.5 240 9.9 101650 36
2010-04-23 16:15 51°13.661 2°55.96 2.3 240 10 101650 35